createdAt,value
2022-08-16T00:11:15.106Z,99513
2022-08-16T00:18:33.252Z,99506
2022-08-16T00:27:15.666Z,99524
2022-08-16T00:34:41.546Z,99532
2022-08-16T00:42:39.766Z,99534
2022-08-16T01:07:22.847Z,99534
2022-08-16T01:15:23.383Z,99529
2022-08-16T01:23:58.276Z,99521
2022-08-16T01:38:53.152Z,99532
2022-08-16T01:46:59.788Z,99525
2022-08-16T01:53:58.052Z,99531
2022-08-16T02:33:42.943Z,99523
2022-08-16T02:40:49.993Z,99524
2022-08-16T02:47:57.951Z,99525
2022-08-16T02:54:30.419Z,99516
2022-08-16T03:00:50.395Z,99505
2022-08-16T03:06:56.258Z,99516
2022-08-16T03:13:00.993Z,99520
2022-08-16T03:19:10.148Z,99524
2022-08-16T03:25:11.852Z,99524
2022-08-16T03:31:06.539Z,99521
2022-08-16T03:36:57.598Z,99532
2022-08-16T03:43:52.938Z,99528
2022-08-16T03:49:44.237Z,99533
2022-08-16T03:55:58.777Z,99527
2022-08-16T04:01:58.298Z,99531
2022-08-16T04:08:29.166Z,99528
2022-08-16T04:14:37.387Z,99539
2022-08-16T04:20:46.971Z,99542
2022-08-16T04:28:53.073Z,99557
2022-08-16T04:35:18.034Z,99555
2022-08-16T04:41:14.916Z,99569
2022-08-16T04:47:40.656Z,99573
2022-08-16T04:53:45.171Z,99583
2022-08-16T04:59:38.643Z,99580
2022-08-16T05:06:05.044Z,99583
2022-08-16T05:12:18.088Z,99585
2022-08-16T05:18:30.598Z,99588
2022-08-16T05:24:28.977Z,99592
2022-08-16T05:30:40.351Z,99592
2022-08-16T05:36:46.283Z,99599
2022-08-16T05:42:51.179Z,99599
2022-08-16T05:49:00.432Z,99589
2022-08-16T05:55:16.839Z,99582
2022-08-16T06:01:17.194Z,99592
2022-08-16T06:07:33.519Z,99600
2022-08-16T06:13:45.569Z,99610
2022-08-16T06:19:48.675Z,99608
2022-08-16T06:25:43.581Z,99609
2022-08-16T06:31:53.345Z,99609
2022-08-16T06:37:57.793Z,99616
2022-08-16T06:44:07.853Z,99611
2022-08-16T06:50:34.810Z,99617
2022-08-16T06:56:30.091Z,99616
2022-08-16T07:02:37.528Z,99624
2022-08-16T07:08:43.581Z,99636
2022-08-16T07:14:38.668Z,99647
2022-08-16T07:20:52.237Z,99636
2022-08-16T07:26:52.787Z,99646
2022-08-16T07:32:58.052Z,99648
2022-08-16T07:38:51.608Z,99652
2022-08-16T07:44:53.582Z,99654
2022-08-16T07:51:08.935Z,99651
2022-08-16T07:57:01.049Z,99654
2022-08-16T08:02:59.077Z,99651
2022-08-16T08:09:00.991Z,99651
2022-08-16T08:15:10.549Z,99664
2022-08-16T08:21:05.847Z,99661
2022-08-16T08:27:04.075Z,99654
2022-08-16T08:33:20.575Z,99670
2022-08-16T08:39:26.993Z,99667
2022-08-16T08:45:58.292Z,99668
2022-08-16T08:52:37.846Z,99674
2022-08-16T08:58:38.650Z,99675
2022-08-16T09:11:20.926Z,99680
2022-08-16T09:25:18.793Z,99690
2022-08-16T09:31:34.809Z,99689
2022-08-16T09:38:22.212Z,99689
2022-08-16T09:45:23.722Z,99691
2022-08-16T09:51:38.448Z,99679
2022-08-16T09:58:13.914Z,99684
2022-08-16T10:05:10.864Z,99686
2022-08-16T10:11:11.657Z,99681
2022-08-16T10:17:16.379Z,99673
2022-08-16T10:23:32.048Z,99679
2022-08-16T10:30:46.953Z,99679
2022-08-16T10:36:57.630Z,99672
2022-08-16T10:42:53.679Z,99675
2022-08-16T10:48:56.664Z,99670
2022-08-16T10:55:46.861Z,99678
2022-08-16T11:03:04.817Z,99674
2022-08-16T11:09:55.188Z,99676
2022-08-16T11:26:16.754Z,99681
2022-08-16T11:38:58.357Z,99683
2022-08-16T11:52:02.839Z,99664
2022-08-16T11:58:28.236Z,99668
2022-08-16T12:04:27.671Z,99676
2022-08-16T12:10:51.202Z,99671
2022-08-16T12:17:09.873Z,99672
2022-08-16T12:23:05.491Z,99665
2022-08-16T12:29:07.736Z,99665
2022-08-16T12:35:15.230Z,99652
2022-08-16T12:41:12.330Z,99650
2022-08-16T12:47:18.718Z,99653
2022-08-16T12:53:22.000Z,99649
2022-08-16T12:59:25.476Z,99650
2022-08-16T13:05:28.763Z,99645
2022-08-16T13:11:34.437Z,99637
2022-08-16T13:17:53.896Z,99641
2022-08-16T13:23:48.662Z,99652
2022-08-16T13:30:02.825Z,99650
2022-08-16T13:36:52.064Z,99639
2022-08-16T13:42:47.945Z,99632
2022-08-16T13:48:48.125Z,99626
2022-08-16T14:01:59.716Z,99630
2022-08-16T14:21:26.744Z,99633
2022-08-16T14:27:32.944Z,99628
2022-08-16T15:01:52.107Z,99610
2022-08-16T15:08:53.392Z,99617
2022-08-16T15:21:29.011Z,99616
2022-08-16T15:34:34.457Z,99622
2022-08-16T15:40:37.287Z,99629
2022-08-16T15:47:06.897Z,99632
2022-08-16T15:53:27.717Z,99626
2022-08-16T16:00:22.218Z,99622
2022-08-16T16:06:31.435Z,99616
2022-08-16T16:31:36.530Z,99618
2022-08-16T16:37:49.545Z,99617
2022-08-16T16:43:44.397Z,99616
2022-08-16T16:49:45.150Z,99623
2022-08-16T16:55:42.179Z,99622
2022-08-16T17:02:49.413Z,99617
2022-08-16T17:08:45.260Z,99615
2022-08-16T17:39:31.693Z,99614
2022-08-16T17:45:39.180Z,99614
2022-08-16T17:51:29.103Z,99617
2022-08-16T17:57:20.897Z,99615
2022-08-16T18:03:11.886Z,99616
2022-08-16T18:09:18.109Z,99621
2022-08-16T18:15:09.905Z,99626
2022-08-16T18:21:01.933Z,99617
2022-08-16T18:26:55.501Z,99622
2022-08-16T18:33:14.324Z,99619
2022-08-16T18:39:05.526Z,99628
2022-08-16T18:44:56.405Z,99627
2022-08-16T18:51:20.388Z,99629
2022-08-16T18:57:13.595Z,99639
2022-08-16T19:03:07.291Z,99646
2022-08-16T19:09:05.429Z,99653
2022-08-16T19:14:56.737Z,99654
2022-08-16T19:20:49.429Z,99665
2022-08-16T19:26:40.142Z,99659
2022-08-16T19:32:37.053Z,99676
2022-08-16T19:38:27.604Z,99682
2022-08-16T19:44:23.825Z,99681
2022-08-16T19:50:15.080Z,99686
2022-08-16T19:56:06.389Z,99690
2022-08-16T20:02:09.302Z,99703
2022-08-16T20:08:23.630Z,99711
2022-08-16T20:14:32.136Z,99715
2022-08-16T20:34:15.658Z,99745
2022-08-16T20:40:41.980Z,99758
2022-08-16T20:46:46.289Z,99758
2022-08-16T20:52:40.193Z,99767
2022-08-16T20:58:32.209Z,99759
2022-08-16T21:04:26.604Z,99769
2022-08-16T21:10:28.994Z,99771
2022-08-16T21:16:28.347Z,99760
2022-08-16T21:22:36.151Z,99761
2022-08-16T21:28:47.240Z,99747
2022-08-16T21:34:52.954Z,99737
2022-08-16T21:40:44.598Z,99744
2022-08-16T21:46:40.878Z,99734
2022-08-16T21:52:32.294Z,99729
2022-08-16T21:58:24.949Z,99729
2022-08-16T22:04:41.784Z,99727
2022-08-16T22:11:11.543Z,99737
2022-08-16T22:17:01.182Z,99740
2022-08-16T22:23:01.262Z,99738
2022-08-16T22:28:54.586Z,99752
2022-08-16T22:35:16.709Z,99751
2022-08-16T22:41:06.771Z,99739
2022-08-16T22:46:57.846Z,99740
2022-08-16T22:53:00.724Z,99746
2022-08-16T22:58:50.486Z,99743
2022-08-16T23:04:42.264Z,99749
2022-08-16T23:10:34.409Z,99746
2022-08-16T23:16:35.182Z,99762
2022-08-16T23:22:28.360Z,99759
2022-08-16T23:28:19.348Z,99754
2022-08-16T23:34:10.216Z,99752
2022-08-16T23:40:00.828Z,99737
2022-08-16T23:45:54.164Z,99729
2022-08-16T23:51:48.282Z,99726
2022-08-16T23:57:39.498Z,99727
